sensor_id;sensor_type;location;lat;lon;timestamp;temperature;humidity
33007;DHT22;19361;51.598;7.650;2023-07-28T00:03:08;20.50;78.60
33007;DHT22;19361;51.598;7.650;2023-07-28T00:08:29;20.50;78.60
33007;DHT22;19361;51.598;7.650;2023-07-28T00:13:50;20.50;78.60
33007;DHT22;19361;51.598;7.650;2023-07-28T00:19:11;20.50;78.70
33007;DHT22;19361;51.598;7.650;2023-07-28T00:24:33;20.40;78.70
33007;DHT22;19361;51.598;7.650;2023-07-28T00:29:54;20.40;78.70
33007;DHT22;19361;51.598;7.650;2023-07-28T00:35:15;20.40;78.70
33007;DHT22;19361;51.598;7.650;2023-07-28T00:40:36;20.40;78.70
33007;DHT22;19361;51.598;7.650;2023-07-28T00:45:57;20.40;78.70
33007;DHT22;19361;51.598;7.650;2023-07-28T00:51:19;20.40;78.70
33007;DHT22;19361;51.598;7.650;2023-07-28T00:56:40;20.40;78.80
33007;DHT22;19361;51.598;7.650;2023-07-28T01:02:01;20.40;78.80
33007;DHT22;19361;51.598;7.650;2023-07-28T01:07:25;20.40;78.80
33007;DHT22;19361;51.598;7.650;2023-07-28T01:12:48;20.40;78.90
33007;DHT22;19361;51.598;7.650;2023-07-28T01:18:09;20.40;78.90
33007;DHT22;19361;51.598;7.650;2023-07-28T01:23:44;20.30;78.80
33007;DHT22;19361;51.598;7.650;2023-07-28T01:29:13;20.30;79.40
33007;DHT22;19361;51.598;7.650;2023-07-28T01:34:35;20.30;78.90
33007;DHT22;19361;51.598;7.650;2023-07-28T01:39:57;20.30;79.00
33007;DHT22;19361;51.598;7.650;2023-07-28T01:45:20;20.30;79.00
33007;DHT22;19361;51.598;7.650;2023-07-28T01:50:41;20.30;79.00
33007;DHT22;19361;51.598;7.650;2023-07-28T01:56:02;20.30;79.00
33007;DHT22;19361;51.598;7.650;2023-07-28T02:01:24;20.40;79.00
33007;DHT22;19361;51.598;7.650;2023-07-28T02:06:45;20.30;78.90
33007;DHT22;19361;51.598;7.650;2023-07-28T02:12:06;20.40;79.00
33007;DHT22;19361;51.598;7.650;2023-07-28T02:17:27;20.40;79.00
33007;DHT22;19361;51.598;7.650;2023-07-28T02:22:48;20.30;78.90
33007;DHT22;19361;51.598;7.650;2023-07-28T02:28:10;20.30;79.10
33007;DHT22;19361;51.598;7.650;2023-07-28T02:33:32;20.40;79.10
33007;DHT22;19361;51.598;7.650;2023-07-28T02:38:56;20.40;79.20
33007;DHT22;19361;51.598;7.650;2023-07-28T02:44:17;20.30;79.00
33007;DHT22;19361;51.598;7.650;2023-07-28T02:49:41;20.40;79.10
33007;DHT22;19361;51.598;7.650;2023-07-28T02:55:03;20.40;79.30
33007;DHT22;19361;51.598;7.650;2023-07-28T03:00:24;20.40;79.30
33007;DHT22;19361;51.598;7.650;2023-07-28T03:05:45;20.40;79.20
33007;DHT22;19361;51.598;7.650;2023-07-28T03:11:06;20.40;79.30
33007;DHT22;19361;51.598;7.650;2023-07-28T03:16:27;20.40;79.30
33007;DHT22;19361;51.598;7.650;2023-07-28T03:21:48;20.40;79.30
33007;DHT22;19361;51.598;7.650;2023-07-28T03:27:09;20.40;79.40
33007;DHT22;19361;51.598;7.650;2023-07-28T03:32:30;20.40;79.40
33007;DHT22;19361;51.598;7.650;2023-07-28T03:37:51;20.40;79.50
33007;DHT22;19361;51.598;7.650;2023-07-28T03:43:13;20.40;79.50
33007;DHT22;19361;51.598;7.650;2023-07-28T03:48:34;20.40;79.50
33007;DHT22;19361;51.598;7.650;2023-07-28T03:53:55;20.40;79.50
33007;DHT22;19361;51.598;7.650;2023-07-28T03:59:16;20.40;79.60
33007;DHT22;19361;51.598;7.650;2023-07-28T04:04:37;20.40;79.60
33007;DHT22;19361;51.598;7.650;2023-07-28T04:09:58;20.40;79.60
33007;DHT22;19361;51.598;7.650;2023-07-28T04:15:19;20.40;79.70
33007;DHT22;19361;51.598;7.650;2023-07-28T04:20:40;20.40;79.70
33007;DHT22;19361;51.598;7.650;2023-07-28T04:26:01;20.40;79.70
33007;DHT22;19361;51.598;7.650;2023-07-28T04:31:22;20.50;79.90
33007;DHT22;19361;51.598;7.650;2023-07-28T04:36:43;20.50;79.90
33007;DHT22;19361;51.598;7.650;2023-07-28T04:42:04;20.50;79.90
33007;DHT22;19361;51.598;7.650;2023-07-28T04:47:25;20.50;79.90
33007;DHT22;19361;51.598;7.650;2023-07-28T04:52:46;20.60;80.00
33007;DHT22;19361;51.598;7.650;2023-07-28T04:58:07;20.60;80.30
33007;DHT22;19361;51.598;7.650;2023-07-28T05:03:29;20.70;80.60
33007;DHT22;19361;51.598;7.650;2023-07-28T05:08:50;20.80;80.50
33007;DHT22;19361;51.598;7.650;2023-07-28T05:14:11;20.90;80.80
33007;DHT22;19361;51.598;7.650;2023-07-28T05:19:32;21.20;81.40
33007;DHT22;19361;51.598;7.650;2023-07-28T05:24:53;21.40;79.90
33007;DHT22;19361;51.598;7.650;2023-07-28T05:30:14;21.50;78.80
33007;DHT22;19361;51.598;7.650;2023-07-28T05:35:35;21.40;78.30
33007;DHT22;19361;51.598;7.650;2023-07-28T05:40:57;21.40;78.60
33007;DHT22;19361;51.598;7.650;2023-07-28T05:46:21;21.60;81.10
33007;DHT22;19361;51.598;7.650;2023-07-28T05:51:42;22.00;79.80
33007;DHT22;19361;51.598;7.650;2023-07-28T05:57:03;22.30;78.70
33007;DHT22;19361;51.598;7.650;2023-07-28T06:02:24;22.50;76.80
33007;DHT22;19361;51.598;7.650;2023-07-28T06:07:45;22.40;76.00
33007;DHT22;19361;51.598;7.650;2023-07-28T06:13:06;22.40;75.60
33007;DHT22;19361;51.598;7.650;2023-07-28T06:18:27;22.30;75.30
33007;DHT22;19361;51.598;7.650;2023-07-28T06:23:48;22.10;75.30
33007;DHT22;19361;51.598;7.650;2023-07-28T06:29:10;22.00;75.70
33007;DHT22;19361;51.598;7.650;2023-07-28T06:34:31;21.90;76.00
33007;DHT22;19361;51.598;7.650;2023-07-28T06:39:52;21.90;76.50
33007;DHT22;19361;51.598;7.650;2023-07-28T06:45:15;21.80;76.20
33007;DHT22;19361;51.598;7.650;2023-07-28T06:50:36;21.80;76.30
33007;DHT22;19361;51.598;7.650;2023-07-28T06:55:57;21.80;77.00
33007;DHT22;19361;51.598;7.650;2023-07-28T07:01:18;21.90;77.60
33007;DHT22;19361;51.598;7.650;2023-07-28T07:06:40;21.90;77.10
33007;DHT22;19361;51.598;7.650;2023-07-28T07:12:01;22.00;76.90
33007;DHT22;19361;51.598;7.650;2023-07-28T07:17:22;22.00;77.00
33007;DHT22;19361;51.598;7.650;2023-07-28T07:22:43;22.10;76.70
33007;DHT22;19361;51.598;7.650;2023-07-28T07:28:04;22.20;76.60
33007;DHT22;19361;51.598;7.650;2023-07-28T07:33:25;22.30;77.20
33007;DHT22;19361;51.598;7.650;2023-07-28T07:38:47;22.50;77.00
33007;DHT22;19361;51.598;7.650;2023-07-28T07:44:08;22.60;76.20
33007;DHT22;19361;51.598;7.650;2023-07-28T07:49:29;22.70;75.30
33007;DHT22;19361;51.598;7.650;2023-07-28T07:54:50;22.80;74.80
33007;DHT22;19361;51.598;7.650;2023-07-28T08:00:12;22.70;74.50
33007;DHT22;19361;51.598;7.650;2023-07-28T08:05:34;22.70;74.90
33007;DHT22;19361;51.598;7.650;2023-07-28T08:10:55;22.90;75.30
33007;DHT22;19361;51.598;7.650;2023-07-28T08:16:16;23.00;74.40
33007;DHT22;19361;51.598;7.650;2023-07-28T08:21:37;23.10;74.20
33007;DHT22;19361;51.598;7.650;2023-07-28T08:26:58;23.20;74.10
33007;DHT22;19361;51.598;7.650;2023-07-28T08:32:19;23.20;74.30
33007;DHT22;19361;51.598;7.650;2023-07-28T08:37:40;23.30;73.60
33007;DHT22;19361;51.598;7.650;2023-07-28T08:43:01;23.30;73.50
33007;DHT22;19361;51.598;7.650;2023-07-28T08:48:23;23.40;74.00
33007;DHT22;19361;51.598;7.650;2023-07-28T08:53:44;23.50;73.70
33007;DHT22;19361;51.598;7.650;2023-07-28T08:59:05;23.60;72.80
33007;DHT22;19361;51.598;7.650;2023-07-28T09:04:26;23.60;72.50
33007;DHT22;19361;51.598;7.650;2023-07-28T09:09:48;23.60;72.50
33007;DHT22;19361;51.598;7.650;2023-07-28T09:15:09;23.60;72.90
33007;DHT22;19361;51.598;7.650;2023-07-28T09:20:38;23.70;72.30
33007;DHT22;19361;51.598;7.650;2023-07-28T09:26:01;23.80;71.20
33007;DHT22;19361;51.598;7.650;2023-07-28T09:31:29;23.80;72.00
33007;DHT22;19361;51.598;7.650;2023-07-28T09:36:57;23.90;71.70
33007;DHT22;19361;51.598;7.650;2023-07-28T09:42:19;24.00;71.10
33007;DHT22;19361;51.598;7.650;2023-07-28T09:47:40;24.00;70.90
33007;DHT22;19361;51.598;7.650;2023-07-28T09:53:05;24.00;71.10
33007;DHT22;19361;51.598;7.650;2023-07-28T09:58:33;24.10;71.60
33007;DHT22;19361;51.598;7.650;2023-07-28T10:03:59;24.10;71.10
33007;DHT22;19361;51.598;7.650;2023-07-28T10:09:20;24.30;70.60
33007;DHT22;19361;51.598;7.650;2023-07-28T10:14:42;24.50;71.30
33007;DHT22;19361;51.598;7.650;2023-07-28T10:20:04;24.60;70.10
33007;DHT22;19361;51.598;7.650;2023-07-28T10:25:36;24.80;69.00
33007;DHT22;19361;51.598;7.650;2023-07-28T10:30:59;24.90;68.60
33007;DHT22;19361;51.598;7.650;2023-07-28T10:42:11;25.10;68.40
33007;DHT22;19361;51.598;7.650;2023-07-28T10:47:33;25.30;68.90
33007;DHT22;19361;51.598;7.650;2023-07-28T10:52:54;25.50;68.20
33007;DHT22;19361;51.598;7.650;2023-07-28T10:58:15;25.80;67.80
33007;DHT22;19361;51.598;7.650;2023-07-28T11:03:36;26.10;67.30
33007;DHT22;19361;51.598;7.650;2023-07-28T11:08:57;26.40;66.10
33007;DHT22;19361;51.598;7.650;2023-07-28T11:14:18;26.40;65.40
33007;DHT22;19361;51.598;7.650;2023-07-28T11:19:39;26.40;65.00
33007;DHT22;19361;51.598;7.650;2023-07-28T11:25:00;26.20;64.60
33007;DHT22;19361;51.598;7.650;2023-07-28T11:30:22;26.10;64.90
33007;DHT22;19361;51.598;7.650;2023-07-28T11:35:45;26.00;64.70
33007;DHT22;19361;51.598;7.650;2023-07-28T11:41:06;25.90;65.40
33007;DHT22;19361;51.598;7.650;2023-07-28T11:52:00;25.90;65.20
33007;DHT22;19361;51.598;7.650;2023-07-28T11:57:21;25.90;65.00
33007;DHT22;19361;51.598;7.650;2023-07-28T12:02:43;26.10;64.90
33007;DHT22;19361;51.598;7.650;2023-07-28T12:08:05;26.30;64.20
33007;DHT22;19361;51.598;7.650;2023-07-28T12:13:28;26.40;63.80
33007;DHT22;19361;51.598;7.650;2023-07-28T12:18:58;26.60;63.90
33007;DHT22;19361;51.598;7.650;2023-07-28T12:24:19;26.80;62.50
33007;DHT22;19361;51.598;7.650;2023-07-28T12:29:40;26.90;62.30
33007;DHT22;19361;51.598;7.650;2023-07-28T12:35:01;27.10;61.80
33007;DHT22;19361;51.598;7.650;2023-07-28T12:40:22;27.20;60.30
33007;DHT22;19361;51.598;7.650;2023-07-28T12:45:44;27.30;60.90
33007;DHT22;19361;51.598;7.650;2023-07-28T12:51:05;27.40;60.30
33007;DHT22;19361;51.598;7.650;2023-07-28T12:56:26;27.40;59.60
33007;DHT22;19361;51.598;7.650;2023-07-28T13:01:47;27.40;59.10
33007;DHT22;19361;51.598;7.650;2023-07-28T13:07:08;27.40;59.40
33007;DHT22;19361;51.598;7.650;2023-07-28T13:12:30;27.30;59.10
33007;DHT22;19361;51.598;7.650;2023-07-28T13:17:51;27.20;59.90
33007;DHT22;19361;51.598;7.650;2023-07-28T13:23:12;27.10;61.30
33007;DHT22;19361;51.598;7.650;2023-07-28T13:28:33;27.00;62.90
33007;DHT22;19361;51.598;7.650;2023-07-28T13:33:57;26.90;63.80
33007;DHT22;19361;51.598;7.650;2023-07-28T13:39:18;26.80;63.90
33007;DHT22;19361;51.598;7.650;2023-07-28T13:44:39;26.90;63.60
33007;DHT22;19361;51.598;7.650;2023-07-28T13:50:00;27.00;63.50
33007;DHT22;19361;51.598;7.650;2023-07-28T13:55:21;27.00;63.10
33007;DHT22;19361;51.598;7.650;2023-07-28T14:00:43;27.20;62.50
33007;DHT22;19361;51.598;7.650;2023-07-28T14:06:04;27.20;61.40
33007;DHT22;19361;51.598;7.650;2023-07-28T14:11:25;27.30;60.50
33007;DHT22;19361;51.598;7.650;2023-07-28T14:16:46;27.50;61.10
33007;DHT22;19361;51.598;7.650;2023-07-28T14:22:08;27.50;60.30
33007;DHT22;19361;51.598;7.650;2023-07-28T14:27:29;27.50;60.80
33007;DHT22;19361;51.598;7.650;2023-07-28T14:32:50;27.60;59.70
33007;DHT22;19361;51.598;7.650;2023-07-28T14:38:12;27.70;58.40
33007;DHT22;19361;51.598;7.650;2023-07-28T14:43:33;27.70;58.70
33007;DHT22;19361;51.598;7.650;2023-07-28T14:48:54;27.80;58.20
33007;DHT22;19361;51.598;7.650;2023-07-28T14:54:15;27.90;57.70
33007;DHT22;19361;51.598;7.650;2023-07-28T14:59:36;27.90;58.20
33007;DHT22;19361;51.598;7.650;2023-07-28T15:04:57;28.00;58.10
33007;DHT22;19361;51.598;7.650;2023-07-28T15:10:18;28.20;57.30
33007;DHT22;19361;51.598;7.650;2023-07-28T15:15:39;28.20;56.70
33007;DHT22;19361;51.598;7.650;2023-07-28T15:21:01;28.20;56.00
33007;DHT22;19361;51.598;7.650;2023-07-28T15:26:23;28.20;55.50
33007;DHT22;19361;51.598;7.650;2023-07-28T15:31:44;28.10;55.80
33007;DHT22;19361;51.598;7.650;2023-07-28T15:37:05;28.00;56.50
33007;DHT22;19361;51.598;7.650;2023-07-28T15:42:26;28.00;57.10
33007;DHT22;19361;51.598;7.650;2023-07-28T15:47:48;27.90;57.10
33007;DHT22;19361;51.598;7.650;2023-07-28T15:53:09;27.90;56.80
33007;DHT22;19361;51.598;7.650;2023-07-28T15:58:30;27.80;56.90
33007;DHT22;19361;51.598;7.650;2023-07-28T16:03:56;27.70;57.40
33007;DHT22;19361;51.598;7.650;2023-07-28T16:09:18;27.60;57.90
33007;DHT22;19361;51.598;7.650;2023-07-28T16:14:39;27.50;57.80
33007;DHT22;19361;51.598;7.650;2023-07-28T16:20:01;27.40;57.80
33007;DHT22;19361;51.598;7.650;2023-07-28T16:25:22;27.30;58.10
33007;DHT22;19361;51.598;7.650;2023-07-28T16:30:44;27.30;58.40
33007;DHT22;19361;51.598;7.650;2023-07-28T16:36:05;27.20;58.50
33007;DHT22;19361;51.598;7.650;2023-07-28T16:41:26;27.10;58.50
33007;DHT22;19361;51.598;7.650;2023-07-28T16:46:47;27.10;58.90
33007;DHT22;19361;51.598;7.650;2023-07-28T16:52:09;27.00;59.40
33007;DHT22;19361;51.598;7.650;2023-07-28T16:57:30;26.90;58.30
33007;DHT22;19361;51.598;7.650;2023-07-28T17:02:51;26.70;58.30
33007;DHT22;19361;51.598;7.650;2023-07-28T17:08:12;26.60;58.60
33007;DHT22;19361;51.598;7.650;2023-07-28T17:13:33;26.50;59.10
33007;DHT22;19361;51.598;7.650;2023-07-28T17:18:54;26.40;59.40
33007;DHT22;19361;51.598;7.650;2023-07-28T17:24:15;26.40;59.60
33007;DHT22;19361;51.598;7.650;2023-07-28T17:29:37;26.40;60.00
33007;DHT22;19361;51.598;7.650;2023-07-28T17:34:58;26.40;60.20
33007;DHT22;19361;51.598;7.650;2023-07-28T17:40:19;26.30;60.40
33007;DHT22;19361;51.598;7.650;2023-07-28T17:45:40;26.30;60.50
33007;DHT22;19361;51.598;7.650;2023-07-28T17:51:01;26.30;60.90
33007;DHT22;19361;51.598;7.650;2023-07-28T17:56:22;26.20;61.00
33007;DHT22;19361;51.598;7.650;2023-07-28T18:01:43;26.20;61.20
33007;DHT22;19361;51.598;7.650;2023-07-28T18:07:05;26.10;61.30
33007;DHT22;19361;51.598;7.650;2023-07-28T18:12:26;26.10;61.30
33007;DHT22;19361;51.598;7.650;2023-07-28T18:17:47;26.10;61.20
33007;DHT22;19361;51.598;7.650;2023-07-28T18:23:08;26.10;61.20
33007;DHT22;19361;51.598;7.650;2023-07-28T18:28:29;26.00;61.00
33007;DHT22;19361;51.598;7.650;2023-07-28T18:33:50;26.00;60.90
33007;DHT22;19361;51.598;7.650;2023-07-28T18:39:11;26.00;60.90
33007;DHT22;19361;51.598;7.650;2023-07-28T18:44:32;26.00;61.00
33007;DHT22;19361;51.598;7.650;2023-07-28T18:49:54;25.90;60.80
33007;DHT22;19361;51.598;7.650;2023-07-28T18:55:15;25.90;60.60
33007;DHT22;19361;51.598;7.650;2023-07-28T19:00:36;25.80;60.50
33007;DHT22;19361;51.598;7.650;2023-07-28T19:05:57;25.60;60.40
33007;DHT22;19361;51.598;7.650;2023-07-28T19:11:18;25.50;60.70
33007;DHT22;19361;51.598;7.650;2023-07-28T19:16:39;25.30;60.80
33007;DHT22;19361;51.598;7.650;2023-07-28T19:22:00;25.20;61.20
33007;DHT22;19361;51.598;7.650;2023-07-28T19:27:21;25.10;61.50
33007;DHT22;19361;51.598;7.650;2023-07-28T19:32:42;24.90;61.80
33007;DHT22;19361;51.598;7.650;2023-07-28T19:38:04;24.80;62.20
33007;DHT22;19361;51.598;7.650;2023-07-28T19:43:25;24.70;62.50
33007;DHT22;19361;51.598;7.650;2023-07-28T19:48:46;24.50;63.00
33007;DHT22;19361;51.598;7.650;2023-07-28T19:54:07;24.50;63.30
33007;DHT22;19361;51.598;7.650;2023-07-28T19:59:28;24.30;63.70
33007;DHT22;19361;51.598;7.650;2023-07-28T20:04:49;24.20;64.00
33007;DHT22;19361;51.598;7.650;2023-07-28T20:10:11;24.10;64.40
33007;DHT22;19361;51.598;7.650;2023-07-28T20:15:32;23.90;64.60
33007;DHT22;19361;51.598;7.650;2023-07-28T20:20:53;23.80;65.00
33007;DHT22;19361;51.598;7.650;2023-07-28T20:26:14;23.80;65.10
33007;DHT22;19361;51.598;7.650;2023-07-28T20:31:36;23.70;65.50
33007;DHT22;19361;51.598;7.650;2023-07-28T20:36:57;23.60;65.60
33007;DHT22;19361;51.598;7.650;2023-07-28T20:42:18;23.50;65.90
33007;DHT22;19361;51.598;7.650;2023-07-28T20:47:39;23.40;66.20
33007;DHT22;19361;51.598;7.650;2023-07-28T20:53:00;23.30;66.30
33007;DHT22;19361;51.598;7.650;2023-07-28T20:58:21;23.30;66.60
33007;DHT22;19361;51.598;7.650;2023-07-28T21:03:42;23.20;66.80
33007;DHT22;19361;51.598;7.650;2023-07-28T21:09:03;23.20;67.00
33007;DHT22;19361;51.598;7.650;2023-07-28T21:14:24;23.20;67.30
33007;DHT22;19361;51.598;7.650;2023-07-28T21:19:45;23.20;67.20
33007;DHT22;19361;51.598;7.650;2023-07-28T21:25:07;23.20;67.50
33007;DHT22;19361;51.598;7.650;2023-07-28T21:30:28;23.10;67.30
33007;DHT22;19361;51.598;7.650;2023-07-28T21:35:50;23.20;67.40
33007;DHT22;19361;51.598;7.650;2023-07-28T21:41:11;23.20;67.40
33007;DHT22;19361;51.598;7.650;2023-07-28T21:46:32;23.10;67.40
33007;DHT22;19361;51.598;7.650;2023-07-28T21:51:53;23.20;67.50
33007;DHT22;19361;51.598;7.650;2023-07-28T21:57:16;23.20;67.50
33007;DHT22;19361;51.598;7.650;2023-07-28T22:02:37;23.10;67.40
33007;DHT22;19361;51.598;7.650;2023-07-28T22:08:11;23.20;67.60
33007;DHT22;19361;51.598;7.650;2023-07-28T22:13:33;23.20;67.80
33007;DHT22;19361;51.598;7.650;2023-07-28T22:18:54;23.10;67.50
33007;DHT22;19361;51.598;7.650;2023-07-28T22:24:15;23.20;67.50
33007;DHT22;19361;51.598;7.650;2023-07-28T22:29:36;23.20;67.70
33007;DHT22;19361;51.598;7.650;2023-07-28T22:34:57;23.20;67.90
33007;DHT22;19361;51.598;7.650;2023-07-28T22:40:18;23.20;68.00
33007;DHT22;19361;51.598;7.650;2023-07-28T22:45:40;23.20;68.70
33007;DHT22;19361;51.598;7.650;2023-07-28T22:51:01;23.20;68.50
33007;DHT22;19361;51.598;7.650;2023-07-28T22:56:22;23.20;68.60
33007;DHT22;19361;51.598;7.650;2023-07-28T23:01:43;23.20;69.00
33007;DHT22;19361;51.598;7.650;2023-07-28T23:07:04;23.10;69.30
33007;DHT22;19361;51.598;7.650;2023-07-28T23:12:26;23.10;69.80
33007;DHT22;19361;51.598;7.650;2023-07-28T23:17:47;23.00;70.00
33007;DHT22;19361;51.598;7.650;2023-07-28T23:23:08;23.00;70.10
33007;DHT22;19361;51.598;7.650;2023-07-28T23:28:29;22.90;70.30
33007;DHT22;19361;51.598;7.650;2023-07-28T23:33:50;22.90;70.50
33007;DHT22;19361;51.598;7.650;2023-07-28T23:39:11;22.90;70.60
33007;DHT22;19361;51.598;7.650;2023-07-28T23:44:32;22.90;70.90
33007;DHT22;19361;51.598;7.650;2023-07-28T23:49:53;22.90;70.90
33007;DHT22;19361;51.598;7.650;2023-07-28T23:55:14;22.90;71.20
